AirNav   Air Wisconsin pilot careers
 
 555 users online  

PS01 Sterling Heliport
Croydon, Pennsylvania, USA

GOING TO CROYDON?


FAA INFORMATION EFFECTIVE 13 SEPTEMBER 2018

Location

FAA Identifier: PS01
Lat/Long: 40-04-52.6000N / 074-53-39.2000W
40-04.876667N / 074-53.653333W
40.0812778 / -74.8942222
(estimated)
Elevation: 24 ft. / 7 m (estimated)
From city: 1 mile SE of CROYDON, PA
Time zone: UTC -4 (UTC -5 during Standard Time)
Zip code: 19021

Heliport Operations

Heliport use: Private use. Permission required prior to landing
Activation date: 10/2006
Control tower: no
ARTCC: NEW YORK CENTER
FSS: WILLIAMSPORT FLIGHT SERVICE STATION
Attendance: MON-FRI 0800-1700
Wind indicator: yes
Segmented circle: no

Heliport Communications

WX ASOS at PNE (5 nm W): PHONE 215-677-0146
WX ASOS at VAY (9 nm S): 119.325 (609-267-1176)
WX ASOS at TTN (12 nm N): 126.775 (609-538-8690)
WX AWOS-3 at LOM (17 nm W): 118.925 (215-646-1068)
WX ASOS at DYL (18 nm NW): 118.875 (215-345-0392)

Nearby radio navigation aids

VOR radial/distance  VOR name  Freq  Var
ARDr187/10.3YARDLEY VOR/DME108.2010W
GXUr299/14.3MC GUIRE VORTAC110.6012W
RBVr258/19.7ROBBINSVILLE VORTAC113.8010W
CYNr317/26.5COYLE VORTAC113.4010W
SBJr203/30.9SOLBERG VOR/DME112.9010W
PTWr114/31.7POTTSTOWN VORTAC116.5009W
OODr045/32.7WOODSTOWN VORTAC112.8010W
VCNr016/32.8CEDAR LAKE VOR/DME115.2010W
COLr259/36.4COLTS NECK VOR/DME115.4011W
MXEr084/37.0MODENA VORTAC113.2009W

 
NDB name  Hdg/Dist  Freq  Var  ID
AMBLER110/18.127512WING .. -. --.
LAKEHURST286/25.839611WNEL -. . .-..

Heliport Services

Airframe service: MAJOR
Powerplant service: MAJOR

Runway Information

Helipad H1

Dimensions: 50 x 50 ft. / 15 x 15 m
Surface: concrete, in good condition
Traffic pattern: leftleft

Heliport Ownership and Management from official FAA records

Ownership: Privately-owned
Owner: STERLING HELICOPTER
1226 RIVER ROAD
CROYDON, PA 19021
Phone 215-271-2510
Manager: PHIL BIDDEN
1226 RIVER ROAD
CROYDON, PA 19021
Phone 215-271-2510

Additional Remarks

CALL PRIOR TO USE FOR PERMISSION, NOISE ABATEMENT PROC & PREFERED FLT ROUTE.
AVOID OVERFLT OF HOMES & SCHOOL 0.5 NM NE.

Instrument Procedures

There are no published instrument procedures at PS01.

Some nearby airports with instrument procedures:

KPNE - Northeast Philadelphia Airport (5 nm W)
KVAY - South Jersey Regional Airport (9 nm S)
N14 - Flying W Airport (10 nm SE)
KTTN - Trenton Mercer Airport (12 nm N)
N73 - Red Lion Airport (13 nm SE)
KWRI - McGuire Field (Joint Base Mc Guire Dix Lakehurst) Airport (14 nm E)
N87 - Trenton-Robbinsville Airport (16 nm NE)
KLOM - Wings Field Airport (17 nm W)
19N - Camden County Airport (18 nm S)
KDYL - Doylestown Airport (18 nm NW)
 
Loc | Ops | Rwys | IFR | FBO | Links
Com | Nav | Svcs | Stats | Notes


 
Area around PS01 (Sterling Heliport)
 
Road maps at: MapQuest Bing Google
 
Aerial photo
No photo
 
Sectional chart

 
Airport distance calculator
Flying to Sterling Heliport? Find the distance to fly.

From to PS01

Sunrise and sunset
Times for 25-Sep-2018
 Local
(UTC-4)
 Zulu
(UTC)
Morning civil twilight06:2410:24
Sunrise06:5110:51
Sunset18:5222:52
Evening civil twilight19:1923:19

Current date and time
Zulu (UTC)  25-Sep-2018 10:21:08
Local (UTC-4)  25-Sep-2018 06:21:08
 
METAR
KPNE 
6nm W 
250954Z AUTO 08010KT 5SM -RA BR OVC005 18/17 A3032 RMK AO2 SLP268 P0008 T01830167
KVAY 
9nm S 
ASOS 119.325 609-267-1176
250954Z AUTO VRB03KT 3SM -RA BR OVC005 18/18 A3031 RMK AO2 CIG 004V010 SLP262 P0007 T01780178
KTTN 
13nm N 
ASOS 133.70 609-538-8690
251003Z 06009KT 3SM -RA BR BKN006 OVC010 17/16 A3032 RMK AO2 P0001 T01670161
KWRI 
15nm E 
250956Z 07006KT 5SM -RA BR OVC007 18/17 A3029 RMK AO2A RAB0856E37DZB37E45RAB45 SLP256 P0005 T01790174
KLOM 
17nm W 
250955Z AUTO 07006KT 4SM BKN006 OVC009 16/16 A3033 RMK AO1
KDYL 
18nm NW 
250954Z AUTO VRB05KT 9SM -RA BKN005 OVC010 14/M18 A3032 RMK AO2 SLP267 P0006 T01441178 $
TAF
KPNE 
6nm W 
250719Z 2507/2606 09012KT 5SM -SHRA BR OVC008 TEMPO 2507/2511 3SM -SHRA BR OVC004 FM251600 16011KT P6SM -SHRA BKN025 FM251900 17011KT P6SM VCSH BKN050 PROB30 2522/2524 4SM -SHRA OVC025 FM260000 15007KT P6SM BKN050 FM260400 17006KT P6SM BKN025
KTTN 
13nm N 
250714Z 2507/2606 09010KT 5SM -SHRA OVC008 TEMPO 2507/2511 2SM SHRA BR OVC004 FM251500 14011KT 6SM -SHRA OVC012 FM251700 17012KT P6SM -SHRA BKN025 PROB30 2522/2524 4SM -SHRA OVC012 FM260000 15007KT P6SM BKN030 FM260500 18006KT P6SM OVC012
KWRI 
15nm E 
250630Z 2506/2608 08009KT 6000 -RA BR OVC007 QNH3028INS TEMPO 2506/2510 BKN006 BECMG 2508/2510 09009KT 8000 -RA BR OVC010 QNH3022INS BECMG 2513/2515 17012G18KT 9999 NSW SCT010 OVC020 QNH3011INS BECMG 2523/2524 18009KT 6000 BR OVC015 QNH3002INS TX24/2518Z TN17/2506Z
NOTAMs
Click for the latest NOTAMs
NOTAMs are issued by the DoD/FAA and will open in a separate window not controlled by AirNav.

 

 
 

Would you like to see your business listed on this page?

 If your business provides an interesting product or service to pilots, flight crews, aircraft, or users of the Sterling Heliport, you should consider listing it here.  To start the listing process, click on the button below
 
Add a business
 

Other Pages about Sterling Heliport

Update a link
 
Copyright © AirNav, LLC. All rights reserved. Privacy Policy  Contact